Time;durP1;ratioP1;P1;durP2;ratioP2;P2;SDS_P1;SDS_P2;PMS_P1;PMS_P2;Temp;Humidity;BMP_temperature;BMP_pressure;BME280_temperature;BME280_humidity;BME280_pressure;Samples;Min_cycle;Max_cycle;Signal;HPM_P1;HPM_P2
2021/09/19 00:01:13;;;;;;;3.45;3.35;;;18.80;64.40;;;;;;5050188;28;20399;-83
2021/09/19 00:03:41;;;;;;;3.40;3.30;;;18.80;64.50;;;;;;5048612;28;20040;-84
2021/09/19 00:06:07;;;;;;;3.53;3.40;;;18.80;64.50;;;;;;5048993;28;20471;-84
2021/09/19 00:08:33;;;;;;;3.45;3.33;;;18.80;64.60;;;;;;5052145;28;20032;-84
2021/09/19 00:10:59;;;;;;;3.42;3.33;;;18.70;64.60;;;;;;5048882;28;20037;-83
2021/09/19 00:13:26;;;;;;;3.53;3.40;;;18.80;64.70;;;;;;5050255;28;20033;-83
2021/09/19 00:15:52;;;;;;;3.35;3.25;;;18.70;64.70;;;;;;5052338;28;20041;-83
2021/09/19 00:18:18;;;;;;;3.50;3.40;;;18.70;64.70;;;;;;5052240;28;20052;-83
2021/09/19 00:20:44;;;;;;;3.80;3.60;;;18.70;64.80;;;;;;5054201;28;20033;-83
2021/09/19 00:23:10;;;;;;;3.70;3.50;;;18.70;64.80;;;;;;5054414;28;20029;-83
2021/09/19 00:25:37;;;;;;;3.65;3.45;;;18.70;64.90;;;;;;5052697;28;20360;-83
2021/09/19 00:28:04;;;;;;;4.00;3.80;;;18.60;64.90;;;;;;5052602;28;20510;-83
2021/09/19 00:30:30;;;;;;;3.97;3.67;;;18.60;65.00;;;;;;5051880;28;20791;-83
2021/09/19 00:32:58;;;;;;;3.42;3.33;;;18.60;65.00;;;;;;5035668;28;20514;-83
2021/09/19 00:35:25;;;;;;;3.40;3.30;;;18.60;65.10;;;;;;5054547;28;20483;-83
2021/09/19 00:37:52;;;;;;;7.90;3.80;;;18.60;65.10;;;;;;5053612;28;20028;-83
2021/09/19 00:40:18;;;;;;;3.90;3.70;;;18.60;65.10;;;;;;5052478;28;20459;-83
2021/09/19 00:42:44;;;;;;;3.60;3.42;;;18.60;65.10;;;;;;5052213;28;20028;-83
2021/09/19 00:45:13;;;;;;;3.50;3.40;;;18.60;65.10;;;;;;5053216;27;20041;-83
2021/09/19 00:47:39;;;;;;;3.58;3.38;;;18.60;65.10;;;;;;5051174;28;20023;-84
2021/09/19 00:50:07;;;;;;;3.20;3.10;;;18.60;65.10;;;;;;5053647;28;20033;-83
2021/09/19 00:52:33;;;;;;;3.33;3.22;;;18.60;65.10;;;;;;5037072;28;20065;-83
2021/09/19 00:54:59;;;;;;;3.72;3.53;;;18.50;65.10;;;;;;5053228;28;20021;-84
2021/09/19 00:57:26;;;;;;;3.65;3.45;;;18.60;65.20;;;;;;5036974;28;20040;-84
2021/09/19 00:59:52;;;;;;;4.00;3.70;;;18.60;65.20;;;;;;5052463;28;20379;-84
2021/09/19 01:02:19;;;;;;;3.35;3.25;;;18.50;65.20;;;;;;5054587;27;20045;-83
2021/09/19 01:04:45;;;;;;;3.78;3.58;;;18.50;65.20;;;;;;5052002;28;20434;-83
2021/09/19 01:07:12;;;;;;;3.55;3.40;;;18.50;65.20;;;;;;5053082;28;20025;-83
2021/09/19 01:09:38;;;;;;;3.50;3.38;;;18.50;65.30;;;;;;5051620;28;20028;-83
2021/09/19 01:12:05;;;;;;;3.67;3.47;;;18.50;65.30;;;;;;5051935;28;20386;-83
2021/09/19 01:14:31;;;;;;;3.90;3.70;;;18.50;65.30;;;;;;5054958;28;20033;-83
2021/09/19 01:16:58;;;;;;;3.30;3.20;;;18.50;65.30;;;;;;5035642;28;20087;-84
2021/09/19 01:19:25;;;;;;;3.72;3.53;;;18.50;65.40;;;;;;5036479;28;20411;-83
2021/09/19 01:21:51;;;;;;;3.55;3.42;;;18.50;65.40;;;;;;5051348;28;20025;-83
2021/09/19 01:24:18;;;;;;;3.78;3.58;;;18.50;65.40;;;;;;5052162;28;20036;-84
2021/09/19 01:26:44;;;;;;;3.78;3.47;;;18.50;65.50;;;;;;5053626;28;20036;-83
2021/09/19 01:29:10;;;;;;;3.38;3.28;;;18.50;65.50;;;;;;5053172;28;20380;-83
2021/09/19 01:31:36;;;;;;;4.07;3.88;;;18.50;65.50;;;;;;5051819;28;20430;-83
2021/09/19 01:34:02;;;;;;;3.88;3.67;;;18.50;65.60;;;;;;5068081;28;20048;-82
2021/09/19 01:36:35;;;;;;;3.88;3.65;;;18.50;65.60;;;;;;5052437;28;20044;-84
2021/09/19 01:39:01;;;;;;;3.47;3.35;;;18.50;65.60;;;;;;5052686;28;20041;-83
2021/09/19 01:41:27;;;;;;;3.72;3.53;;;18.40;65.60;;;;;;5054360;28;20024;-84
2021/09/19 01:43:56;;;;;;;3.83;3.63;;;18.40;65.60;;;;;;5052404;28;20028;-83
2021/09/19 01:46:22;;;;;;;3.83;3.63;;;18.40;65.70;;;;;;5050222;28;20041;-83
2021/09/19 01:48:48;;;;;;;3.35;3.25;;;18.40;65.70;;;;;;5050749;28;20029;-83
2021/09/19 01:51:15;;;;;;;3.88;3.67;;;18.40;65.70;;;;;;5052427;28;20029;-83
2021/09/19 01:53:41;;;;;;;3.88;3.67;;;18.40;65.80;;;;;;5053990;28;20100;-83
2021/09/19 01:56:08;;;;;;;3.90;3.70;;;18.40;65.80;;;;;;5052498;28;20036;-83
2021/09/19 01:58:44;;;;;;;3.90;3.70;;;18.40;65.90;;;;;;5067775;28;20029;-83
2021/09/19 02:01:10;;;;;;;3.75;3.55;;;18.40;65.90;;;;;;5049503;28;20033;-83
2021/09/19 02:03:37;;;;;;;3.35;3.25;;;18.40;65.90;;;;;;5046941;28;20021;-83
2021/09/19 02:06:03;;;;;;;3.85;3.65;;;18.30;65.90;;;;;;5044957;28;20053;-82
2021/09/19 02:08:30;;;;;;;3.63;3.42;;;18.30;65.90;;;;;;5046210;28;20033;-83
2021/09/19 02:10:56;;;;;;;3.42;3.30;;;18.30;65.90;;;;;;5041912;28;20040;-83
2021/09/19 02:13:22;;;;;;;3.90;3.70;;;18.30;66.00;;;;;;5045035;28;20025;-83
2021/09/19 02:15:48;;;;;;;3.40;3.30;;;18.30;66.10;;;;;;5036630;28;20041;-83
2021/09/19 02:18:14;;;;;;;3.50;3.38;;;18.30;66.10;;;;;;5033723;28;20033;-83
2021/09/19 02:20:41;;;;;;;3.80;3.60;;;18.30;66.10;;;;;;5035691;28;20396;-83
2021/09/19 02:23:07;;;;;;;3.50;3.40;;;18.30;66.10;;;;;;5035164;28;20347;-83
2021/09/19 02:25:33;;;;;;;3.65;3.45;;;18.30;67.00;;;;;;5045575;28;20029;-83
2021/09/19 02:28:01;;;;;;;3.63;3.42;;;18.30;66.10;;;;;;5047210;28;20046;-83
2021/09/19 02:30:27;;;;;;;3.80;3.60;;;18.30;66.20;;;;;;5048013;28;20037;-83
2021/09/19 02:32:53;;;;;;;3.50;3.35;;;18.30;66.20;;;;;;5034635;28;20068;-83
2021/09/19 02:35:19;;;;;;;3.55;3.40;;;18.30;66.20;;;;;;5052109;28;20423;-83
2021/09/19 02:37:47;;;;;;;3.63;3.45;;;18.30;66.30;;;;;;5050537;28;20040;-83
2021/09/19 02:40:13;;;;;;;3.40;3.30;;;18.30;66.30;;;;;;5050009;28;20380;-83
2021/09/19 02:42:39;;;;;;;3.53;3.38;;;18.30;67.00;;;;;;5050194;28;20494;-83
2021/09/19 02:45:06;;;;;;;3.42;3.33;;;18.30;66.30;;;;;;5066026;28;20033;-83
2021/09/19 02:47:32;;;;;;;3.20;3.10;;;18.30;66.40;;;;;;5051865;28;20041;-83
2021/09/19 02:49:58;;;;;;;3.10;3.00;;;18.30;66.40;;;;;;5050103;28;20032;-83
2021/09/19 02:52:24;;;;;;;13.00;3.70;;;18.30;66.50;;;;;;5051033;28;20025;-83
2021/09/19 02:54:50;;;;;;;3.28;3.17;;;18.30;66.50;;;;;;5049867;28;20455;-83
2021/09/19 02:57:16;;;;;;;3.20;3.10;;;18.30;66.50;;;;;;5051093;28;20040;-83
2021/09/19 02:59:42;;;;;;;3.38;3.17;;;18.30;66.50;;;;;;5050231;28;20045;-83
2021/09/19 03:02:09;;;;;;;2.88;2.78;;;18.30;66.60;;;;;;5051063;28;20494;-83
2021/09/19 03:04:35;;;;;;;3.03;2.92;;;18.20;66.60;;;;;;5066584;28;20033;-83
2021/09/19 03:07:01;;;;;;;3.25;3.15;;;18.20;66.60;;;;;;5049596;28;20041;-83
2021/09/19 03:09:27;;;;;;;2.90;2.80;;;18.30;66.70;;;;;;5050797;28;20025;-83
2021/09/19 03:11:53;;;;;;;3.17;2.97;;;18.20;66.70;;;;;;5051145;28;20036;-83
2021/09/19 03:14:19;;;;;;;3.00;2.90;;;18.20;66.70;;;;;;5051116;28;20036;-83
2021/09/19 03:16:45;;;;;;;3.00;2.88;;;18.20;66.80;;;;;;5064314;28;20050;-83
2021/09/19 03:19:11;;;;;;;3.10;3.00;;;18.20;66.80;;;;;;5050569;28;20024;-83
2021/09/19 03:21:37;;;;;;;2.90;2.80;;;18.20;66.90;;;;;;5050747;28;20467;-82
2021/09/19 03:24:04;;;;;;;3.10;2.90;;;18.20;66.90;;;;;;5050608;28;20120;-83
2021/09/19 03:26:30;;;;;;;2.90;2.80;;;18.20;66.90;;;;;;5052367;28;20052;-83
2021/09/19 03:28:56;;;;;;;2.90;2.80;;;18.20;66.90;;;;;;5050447;28;20033;-82
2021/09/19 03:31:22;;;;;;;3.00;2.90;;;18.20;67.00;;;;;;5050066;28;20127;-82
2021/09/19 03:33:48;;;;;;;3.10;3.00;;;18.20;67.00;;;;;;5050332;28;20049;-82
2021/09/19 03:36:14;;;;;;;3.33;3.13;;;18.20;67.10;;;;;;5050359;28;20105;-81
2021/09/19 03:38:40;;;;;;;3.30;3.20;;;18.20;67.10;;;;;;5052402;28;20032;-82
2021/09/19 03:41:06;;;;;;;3.30;3.20;;;18.20;67.10;;;;;;5049300;28;20033;-82
2021/09/19 03:43:33;;;;;;;3.30;3.20;;;18.20;67.20;;;;;;5049021;28;20040;-82
2021/09/19 03:45:59;;;;;;;3.45;3.25;;;18.10;67.20;;;;;;5048429;28;20041;-82
2021/09/19 03:48:25;;;;;;;3.00;2.90;;;18.10;67.20;;;;;;5048571;28;20024;-82
2021/09/19 03:50:51;;;;;;;2.92;2.83;;;18.10;67.30;;;;;;5050874;28;20029;-82
2021/09/19 03:53:17;;;;;;;8.00;3.50;;;18.10;68.10;;;;;;5051764;28;20028;-82
2021/09/19 03:55:43;;;;;;;3.20;3.10;;;18.10;67.40;;;;;;5048600;28;20040;-82
2021/09/19 03:58:09;;;;;;;3.10;3.00;;;18.10;67.40;;;;;;5050652;28;20407;-82
2021/09/19 04:00:35;;;;;;;3.00;2.90;;;18.10;67.40;;;;;;5048560;28;20033;-82
2021/09/19 04:03:01;;;;;;;3.15;3.05;;;18.10;67.50;;;;;;5048506;28;20049;-82
2021/09/19 04:05:27;;;;;;;3.00;2.90;;;18.10;67.60;;;;;;5052110;28;20025;-82
2021/09/19 04:07:54;;;;;;;3.00;2.90;;;18.10;67.60;;;;;;5050019;28;20036;-82
2021/09/19 04:10:20;;;;;;;2.92;2.83;;;18.10;67.60;;;;;;5048592;28;20033;-82
2021/09/19 04:12:46;;;;;;;2.90;2.80;;;18.10;67.70;;;;;;5049992;28;20491;-82
2021/09/19 04:15:12;;;;;;;3.10;3.00;;;18.10;67.70;;;;;;5049558;27;20036;-82
2021/09/19 04:17:38;;;;;;;2.90;2.80;;;18.10;67.70;;;;;;5051905;28;20052;-82
2021/09/19 04:20:05;;;;;;;3.25;3.15;;;18.10;67.80;;;;;;5049955;28;20044;-81
2021/09/19 04:22:31;;;;;;;3.20;3.10;;;18.10;67.80;;;;;;5050061;28;20033;-82
2021/09/19 04:24:59;;;;;;;3.20;3.10;;;18.10;67.90;;;;;;5046929;28;20041;-82
2021/09/19 04:27:25;;;;;;;3.22;3.13;;;18.10;67.90;;;;;;5050418;28;20041;-82
2021/09/19 04:29:51;;;;;;;3.92;3.63;;;18.10;68.00;;;;;;5050616;28;20036;-82
2021/09/19 04:32:18;;;;;;;3.40;3.20;;;18.10;68.00;;;;;;5049582;28;20033;-82
2021/09/19 04:34:45;;;;;;;3.28;3.17;;;18.10;68.10;;;;;;5048664;28;20021;-81
2021/09/19 04:37:13;;;;;;;3.20;3.10;;;18.10;68.10;;;;;;5065309;28;20055;-82
2021/09/19 04:39:40;;;;;;;3.20;3.10;;;18.10;68.20;;;;;;5050099;28;20037;-82
2021/09/19 04:42:07;;;;;;;3.20;3.10;;;18.10;68.30;;;;;;5049886;28;20042;-82
2021/09/19 04:44:33;;;;;;;3.00;2.90;;;18.00;68.20;;;;;;5051838;28;20025;-82
2021/09/19 04:46:59;;;;;;;2.97;2.88;;;18.00;68.40;;;;;;5049208;28;20410;-82
2021/09/19 04:49:26;;;;;;;3.17;3.05;;;18.00;68.50;;;;;;5049668;28;20029;-82
2021/09/19 04:51:52;;;;;;;3.35;3.15;;;18.00;68.50;;;;;;5049609;28;20028;-82
2021/09/19 04:54:18;;;;;;;3.13;3.03;;;18.00;68.50;;;;;;5048272;28;20387;-82
2021/09/19 04:56:44;;;;;;;2.95;2.85;;;18.00;68.50;;;;;;5049739;28;20037;-82
2021/09/19 04:59:10;;;;;;;3.25;3.05;;;18.00;68.60;;;;;;5050715;28;20402;-82
2021/09/19 05:01:36;;;;;;;3.00;2.90;;;17.90;68.60;;;;;;5052065;27;20040;-82
2021/09/19 05:04:02;;;;;;;3.10;3.00;;;17.90;68.80;;;;;;5051704;28;20029;-82
2021/09/19 05:06:28;;;;;;;2.80;2.70;;;17.90;68.80;;;;;;5053176;28;20021;-82
2021/09/19 05:08:54;;;;;;;3.03;2.92;;;17.90;68.80;;;;;;5052907;28;20387;-82
2021/09/19 05:11:20;;;;;;;3.13;2.92;;;17.90;68.90;;;;;;5039519;28;20033;-82
2021/09/19 05:13:47;;;;;;;3.00;2.90;;;17.90;69.00;;;;;;5052093;28;20037;-82
2021/09/19 05:16:13;;;;;;;4.18;3.05;;;17.90;69.00;;;;;;5051236;28;20055;-82
2021/09/19 05:18:39;;;;;;;2.70;2.60;;;17.90;69.10;;;;;;5052978;28;20029;-82
2021/09/19 05:21:05;;;;;;;2.63;2.53;;;17.90;69.10;;;;;;5051786;28;20021;-82
2021/09/19 05:23:31;;;;;;;2.72;2.63;;;17.90;69.10;;;;;;5053095;28;20032;-82
2021/09/19 05:25:57;;;;;;;2.65;2.55;;;17.90;69.10;;;;;;5052976;28;20033;-82
2021/09/19 05:28:23;;;;;;;2.38;2.28;;;17.90;69.20;;;;;;5051556;28;20199;-82
2021/09/19 05:30:51;;;;;;;3.67;3.40;;;17.90;69.30;;;;;;5052233;28;20029;-82
2021/09/19 05:33:18;;;;;;;2.75;2.65;;;18.00;69.40;;;;;;5052623;28;20033;-82
2021/09/19 05:35:44;;;;;;;2.55;2.45;;;18.00;69.40;;;;;;5053800;28;20029;-82
2021/09/19 05:38:10;;;;;;;2.92;2.72;;;18.00;69.40;;;;;;5052692;28;20411;-82
2021/09/19 05:40:36;;;;;;;18.08;3.60;;;18.00;69.40;;;;;;5051393;28;20025;-82
2021/09/19 05:43:03;;;;;;;2.83;2.63;;;18.00;69.40;;;;;;5050938;28;20491;-82
2021/09/19 05:45:30;;;;;;;2.75;2.65;;;18.00;69.40;;;;;;5051973;28;20033;-82
2021/09/19 05:47:56;;;;;;;2.60;2.50;;;18.00;69.40;;;;;;5051130;28;20033;-82
2021/09/19 05:50:23;;;;;;;2.50;2.40;;;18.10;69.50;;;;;;5054192;28;20490;-82
2021/09/19 05:52:49;;;;;;;2.90;2.80;;;18.10;69.50;;;;;;5035602;28;20024;-82
2021/09/19 05:55:15;;;;;;;3.50;2.72;;;18.10;69.50;;;;;;5050966;28;20036;-82
2021/09/19 05:57:41;;;;;;;2.60;2.50;;;18.10;69.60;;;;;;5052109;28;20044;-82
2021/09/19 06:00:08;;;;;;;2.80;2.60;;;18.10;70.40;;;;;;5033579;28;20040;-81
2021/09/19 06:02:34;;;;;;;2.88;2.75;;;18.10;69.70;;;;;;5052731;28;20475;-82
2021/09/19 06:05:00;;;;;;;4.43;3.08;;;18.10;69.70;;;;;;5050864;28;20033;-82
2021/09/19 06:07:26;;;;;;;2.67;2.55;;;18.10;69.70;;;;;;5050338;28;20080;-82
2021/09/19 06:09:52;;;;;;;11.45;3.15;;;18.10;69.80;;;;;;5050690;28;20025;-82
2021/09/19 06:12:18;;;;;;;2.80;2.70;;;18.20;69.80;;;;;;5051531;28;20047;-82
2021/09/19 06:14:44;;;;;;;2.90;2.80;;;18.20;69.80;;;;;;5052037;28;20032;-82
2021/09/19 06:17:10;;;;;;;2.90;2.80;;;18.20;69.80;;;;;;5066960;28;20037;-82
2021/09/19 06:19:37;;;;;;;3.00;2.90;;;18.20;69.90;;;;;;5051748;28;20028;-83
2021/09/19 06:22:03;;;;;;;3.00;2.90;;;18.20;69.90;;;;;;5049919;28;20029;-82
2021/09/19 06:24:30;;;;;;;3.13;3.03;;;18.30;70.00;;;;;;5050547;28;20024;-83
2021/09/19 06:27:00;;;;;;;3.70;3.40;;;18.20;70.00;;;;;;5051608;28;20025;-82
2021/09/19 06:29:26;;;;;;;2.95;2.85;;;18.20;70.10;;;;;;5053515;28;20021;-82
2021/09/19 06:31:52;;;;;;;3.30;3.10;;;18.20;70.20;;;;;;5048460;28;20028;-83
2021/09/19 06:34:18;;;;;;;2.80;2.70;;;18.10;70.30;;;;;;5050180;28;20072;-82
2021/09/19 06:36:44;;;;;;;2.80;2.70;;;18.10;70.30;;;;;;5050940;28;20033;-82
2021/09/19 06:39:10;;;;;;;2.83;2.72;;;18.10;70.50;;;;;;5033048;28;20033;-82
2021/09/19 06:41:36;;;;;;;3.15;3.03;;;18.10;70.50;;;;;;5049190;28;20040;-82
2021/09/19 06:44:03;;;;;;;3.30;3.10;;;18.10;70.50;;;;;;5051262;28;20398;-81
2021/09/19 06:46:32;;;;;;;3.15;2.95;;;18.10;70.50;;;;;;5034448;28;20056;-82
2021/09/19 06:49:00;;;;;;;3.28;3.08;;;18.10;70.60;;;;;;5051059;28;20037;-83
2021/09/19 06:51:26;;;;;;;2.88;2.78;;;18.10;70.60;;;;;;5050802;28;20029;-82
2021/09/19 06:53:52;;;;;;;2.78;2.67;;;18.10;70.70;;;;;;5052210;28;20483;-83
2021/09/19 06:56:20;;;;;;;3.08;2.88;;;18.10;70.70;;;;;;5051444;28;20033;-82
2021/09/19 06:58:47;;;;;;;2.72;2.63;;;18.10;70.70;;;;;;5051687;28;20041;-82
2021/09/19 07:01:15;;;;;;;3.00;2.90;;;18.10;70.80;;;;;;5047720;28;20403;-83
2021/09/19 07:03:42;;;;;;;2.90;2.70;;;18.10;70.80;;;;;;5049784;28;20407;-83
2021/09/19 07:06:08;;;;;;;3.03;2.92;;;18.10;70.90;;;;;;5050675;28;20029;-83
2021/09/19 07:08:34;;;;;;;4.05;3.65;;;18.10;71.00;;;;;;5051583;28;20033;-83
2021/09/19 07:11:01;;;;;;;2.70;2.60;;;18.10;71.00;;;;;;5048256;28;20037;-83
2021/09/19 07:13:27;;;;;;;2.88;2.78;;;18.10;71.10;;;;;;5049469;28;20860;-82
2021/09/19 07:15:53;;;;;;;3.47;3.17;;;18.10;71.10;;;;;;5050221;27;20037;-82
2021/09/19 07:18:20;;;;;;;2.85;2.75;;;18.10;71.20;;;;;;5051171;28;20048;-82
2021/09/19 07:20:47;;;;;;;3.20;2.97;;;18.10;71.20;;;;;;5049869;28;20480;-82
2021/09/19 07:23:13;;;;;;;2.60;2.50;;;18.10;71.30;;;;;;5050687;28;20045;-83
2021/09/19 07:25:39;;;;;;;2.70;2.60;;;18.00;71.30;;;;;;5050597;28;20033;-83
2021/09/19 07:28:06;;;;;;;2.90;2.80;;;18.00;71.50;;;;;;5050448;28;20029;-83
2021/09/19 07:30:33;;;;;;;2.97;2.78;;;18.00;71.70;;;;;;5048951;28;20479;-83
2021/09/19 07:32:59;;;;;;;2.85;2.75;;;18.00;71.80;;;;;;5065591;28;20044;-83
2021/09/19 07:35:26;;;;;;;2.65;2.55;;;18.00;71.90;;;;;;5051210;28;20036;-83
2021/09/19 07:37:52;;;;;;;2.72;2.63;;;18.00;72.00;;;;;;5050296;28;20084;-83
2021/09/19 07:40:19;;;;;;;2.90;2.70;;;17.90;72.10;;;;;;5047720;28;20025;-83
2021/09/19 07:42:45;;;;;;;2.70;2.60;;;17.90;72.20;;;;;;5049038;28;20403;-82
2021/09/19 07:45:11;;;;;;;2.72;2.63;;;17.90;72.20;;;;;;5050574;28;20117;-83
2021/09/19 07:47:38;;;;;;;2.90;2.80;;;17.90;72.30;;;;;;5063419;28;20387;-83
2021/09/19 07:50:04;;;;;;;2.97;2.88;;;17.90;72.30;;;;;;5048924;28;20021;-83
2021/09/19 07:52:30;;;;;;;3.38;3.20;;;17.90;72.40;;;;;;5049052;28;20044;-82
2021/09/19 07:54:57;;;;;;;3.20;2.90;;;17.90;72.50;;;;;;5050335;28;20028;-83
2021/09/19 07:57:23;;;;;;;9.68;3.08;;;17.80;72.50;;;;;;5050558;28;20049;-81
2021/09/19 07:59:53;;;;;;;2.80;2.70;;;17.90;72.50;;;;;;5051197;28;20036;-82
2021/09/19 08:02:19;;;;;;;3.20;3.10;;;17.90;72.50;;;;;;5051021;28;20037;-83
2021/09/19 08:04:45;;;;;;;4.90;3.20;;;18.00;72.50;;;;;;5033885;28;20025;-82
2021/09/19 08:07:12;;;;;;;3.25;3.05;;;18.00;72.40;;;;;;5050051;28;20502;-82
2021/09/19 08:09:38;;;;;;;3.10;3.00;;;18.00;72.30;;;;;;5048982;28;20021;-83
2021/09/19 08:12:04;;;;;;;3.47;3.28;;;18.00;72.30;;;;;;5050133;28;20044;-83
2021/09/19 08:14:30;;;;;;;3.20;3.10;;;18.00;72.30;;;;;;5050916;28;20383;-83
2021/09/19 08:16:57;;;;;;;3.80;3.50;;;18.00;72.40;;;;;;5049138;28;20052;-83
2021/09/19 08:19:24;;;;;;;3.00;2.90;;;18.00;72.30;;;;;;5047331;28;20021;-82
2021/09/19 08:21:50;;;;;;;3.20;3.10;;;18.00;72.30;;;;;;5033774;28;20494;-83
2021/09/19 08:24:16;;;;;;;3.22;3.13;;;18.10;72.30;;;;;;5050072;28;20107;-83
2021/09/19 08:26:42;;;;;;;3.20;3.10;;;18.10;72.30;;;;;;5050500;28;20529;-83
2021/09/19 08:29:09;;;;;;;3.33;3.15;;;18.10;72.20;;;;;;5048902;28;20390;-83
2021/09/19 08:31:35;;;;;;;3.45;3.28;;;18.10;72.20;;;;;;5048091;28;20483;-83
2021/09/19 08:34:01;;;;;;;3.00;2.90;;;18.10;72.00;;;;;;5050400;28;20049;-83
2021/09/19 08:36:27;;;;;;;3.90;3.60;;;18.20;72.00;;;;;;5052588;28;20040;-83
2021/09/19 08:38:53;;;;;;;3.28;3.17;;;18.20;72.00;;;;;;5053903;28;20380;-83
2021/09/19 08:41:20;;;;;;;3.50;3.30;;;18.20;71.90;;;;;;5054360;28;20021;-83
2021/09/19 08:43:47;;;;;;;3.13;3.03;;;18.20;72.00;;;;;;5053614;28;20021;-83
2021/09/19 08:46:21;;;;;;;3.20;3.10;;;18.20;71.90;;;;;;5052650;28;20052;-83
2021/09/19 08:48:47;;;;;;;3.60;3.40;;;18.30;71.90;;;;;;5037167;28;20025;-83
2021/09/19 08:51:13;;;;;;;3.15;3.05;;;18.30;71.80;;;;;;5052218;28;20029;-83
2021/09/19 08:53:39;;;;;;;3.50;3.40;;;18.30;71.80;;;;;;5056180;28;20047;-82
2021/09/19 08:56:07;;;;;;;3.53;3.33;;;18.30;71.70;;;;;;5053348;28;20029;-83
2021/09/19 08:58:33;;;;;;;3.67;3.47;;;18.40;71.70;;;;;;5051679;28;20037;-83
2021/09/19 09:01:00;;;;;;;3.40;3.30;;;18.40;71.60;;;;;;5068014;28;20040;-83
2021/09/19 09:03:27;;;;;;;3.30;3.20;;;18.50;71.50;;;;;;5036951;28;20037;-82
2021/09/19 09:06:01;;;;;;;3.28;3.17;;;18.50;71.30;;;;;;5052978;28;20028;-82
2021/09/19 09:08:28;;;;;;;3.33;3.22;;;18.60;71.30;;;;;;5054335;28;20067;-82
2021/09/19 09:10:55;;;;;;;4.53;4.32;;;18.60;71.20;;;;;;5053593;28;20033;-83
2021/09/19 09:13:23;;;;;;;3.83;3.63;;;18.70;71.10;;;;;;5053407;28;20386;-82
2021/09/19 09:15:52;;;;;;;10.10;4.70;;;18.70;71.10;;;;;;5051150;28;20043;-82
2021/09/19 09:19:02;;;;;;;4.30;4.10;;;18.70;71.10;;;;;;5052882;28;20032;-82
2021/09/19 09:21:30;;;;;;;3.85;3.65;;;18.80;71.10;;;;;;5037139;28;20037;-82
2021/09/19 09:23:57;;;;;;;3.33;3.22;;;18.80;71.00;;;;;;5068592;28;20036;-82
2021/09/19 09:26:34;;;;;;;3.88;3.67;;;18.80;71.00;;;;;;5037132;28;20047;-83
2021/09/19 09:29:04;;;;;;;4.05;3.85;;;18.80;71.00;;;;;;5052441;28;20043;-82
2021/09/19 09:31:54;;;;;;;3.58;3.42;;;18.90;70.90;;;;;;5052162;27;20376;-83
2021/09/19 09:34:24;;;;;;;3.53;3.40;;;18.90;70.70;;;;;;5047047;28;20052;-82
2021/09/19 09:36:54;;;;;;;4.18;3.85;;;19.00;70.60;;;;;;5050925;28;20028;-82
2021/09/19 09:39:22;;;;;;;4.67;4.33;;;19.00;70.60;;;;;;5051405;28;20036;-83
2021/09/19 09:41:48;;;;;;;3.33;3.22;;;19.00;70.60;;;;;;5053651;28;20029;-83
2021/09/19 09:44:27;;;;;;;4.60;4.40;;;19.00;70.50;;;;;;5051875;28;20029;-82
2021/09/19 09:46:54;;;;;;;6.97;4.90;;;19.10;70.50;;;;;;5049574;28;20425;-82
2021/09/19 09:49:22;;;;;;;4.60;4.40;;;19.10;70.30;;;;;;5036089;28;20032;-83
2021/09/19 09:51:48;;;;;;;4.80;4.60;;;19.10;70.30;;;;;;5051211;28;20017;-82
2021/09/19 09:54:15;;;;;;;4.70;4.50;;;19.20;70.20;;;;;;5052242;28;20026;-82
2021/09/19 09:56:44;;;;;;;4.43;4.22;;;19.20;70.20;;;;;;5054158;28;20028;-83
2021/09/19 09:59:10;;;;;;;4.90;4.70;;;19.30;70.20;;;;;;5052070;28;20045;-83
2021/09/19 10:01:37;;;;;;;4.47;4.28;;;19.40;70.00;;;;;;5050555;28;20029;-83
2021/09/19 10:04:04;;;;;;;5.45;5.25;;;19.50;69.90;;;;;;5050941;28;20031;-82
2021/09/19 10:06:31;;;;;;;5.18;4.97;;;19.60;69.60;;;;;;5051042;28;20025;-82
2021/09/19 10:08:58;;;;;;;5.70;5.40;;;19.70;69.60;;;;;;5034360;28;20033;-82
2021/09/19 10:11:25;;;;;;;4.40;4.20;;;19.80;69.20;;;;;;5052705;28;20036;-82
2021/09/19 10:13:51;;;;;;;4.03;3.83;;;20.00;69.00;;;;;;5051542;28;20032;-82
2021/09/19 10:16:18;;;;;;;4.15;3.95;;;20.10;68.80;;;;;;5048580;28;20028;-82
2021/09/19 10:18:50;;;;;;;4.20;4.00;;;20.20;68.70;;;;;;5052039;28;20505;-83
2021/09/19 10:21:21;;;;;;;4.35;4.15;;;20.30;68.50;;;;;;5033203;28;20044;-82
2021/09/19 10:23:48;;;;;;;9.23;4.53;;;20.30;68.20;;;;;;5051709;28;20029;-83
2021/09/19 10:26:20;;;;;;;4.53;4.32;;;20.30;68.10;;;;;;5035208;28;20063;-82
2021/09/19 10:28:48;;;;;;;5.13;4.93;;;20.50;68.10;;;;;;5050056;28;20021;-82
2021/09/19 10:31:18;;;;;;;5.72;5.43;;;20.60;67.80;;;;;;5051045;28;20025;-83
2021/09/19 10:33:58;;;;;;;5.30;5.10;;;20.80;67.60;;;;;;5051320;28;20049;-83
2021/09/19 10:36:36;;;;;;;5.75;5.47;;;21.00;67.20;;;;;;5050293;28;20025;-83
2021/09/19 10:39:19;;;;;;;6.05;5.75;;;21.10;66.70;;;;;;5035110;28;20045;-83
2021/09/19 10:42:04;;;;;;;5.82;5.53;;;21.20;66.40;;;;;;5049175;28;20029;-83
2021/09/19 10:44:46;;;;;;;5.80;5.50;;;21.50;67.00;;;;;;5053336;28;20029;-83
2021/09/19 10:47:12;;;;;;;6.35;6.05;;;21.70;65.70;;;;;;5051261;28;20041;-83
2021/09/19 10:49:41;;;;;;;5.90;5.60;;;21.70;65.30;;;;;;5050001;28;20029;-83
2021/09/19 10:52:09;;;;;;;6.10;5.80;;;21.70;65.30;;;;;;5051099;28;20029;-83
2021/09/19 10:54:50;;;;;;;6.93;5.10;;;21.60;65.40;;;;;;5048579;28;20024;-83
2021/09/19 10:57:27;;;;;;;5.45;5.25;;;21.60;65.50;;;;;;5034237;28;20038;-83
2021/09/19 11:00:08;;;;;;;5.40;5.20;;;21.50;65.50;;;;;;5051651;28;20063;-83
2021/09/19 11:02:35;;;;;;;5.32;5.13;;;21.50;65.50;;;;;;5051740;28;20044;-84
2021/09/19 11:05:23;;;;;;;5.20;5.00;;;21.50;65.50;;;;;;5048356;28;20029;-83
2021/09/19 11:07:50;;;;;;;5.35;5.15;;;21.50;65.40;;;;;;5050873;28;20036;-83
2021/09/19 11:10:17;;;;;;;5.25;5.05;;;21.60;65.40;;;;;;5050909;28;20368;-82
2021/09/19 11:12:44;;;;;;;4.88;4.68;;;21.60;65.10;;;;;;5049446;28;20033;-83
2021/09/19 11:15:12;;;;;;;6.35;5.03;;;21.60;64.90;;;;;;5032615;28;20033;-83
2021/09/19 11:17:45;;;;;;;4.93;4.72;;;21.60;64.70;;;;;;5047526;28;20399;-83
2021/09/19 11:20:14;;;;;;;4.80;4.60;;;21.60;64.50;;;;;;5052521;28;20041;-83
2021/09/19 11:22:44;;;;;;;5.05;4.85;;;21.70;64.50;;;;;;5049668;28;20037;-83
2021/09/19 11:25:11;;;;;;;5.00;4.80;;;21.70;64.50;;;;;;5049224;28;20025;-83
2021/09/19 11:27:38;;;;;;;5.43;5.15;;;21.70;64.20;;;;;;5049439;28;20050;-83
2021/09/19 11:30:05;;;;;;;5.03;4.82;;;21.80;64.00;;;;;;5050136;27;20028;-83
2021/09/19 11:32:31;;;;;;;4.70;4.50;;;21.80;63.80;;;;;;5067483;28;20072;-83
2021/09/19 11:35:01;;;;;;;5.93;5.43;;;21.80;63.70;;;;;;5047792;28;20029;-83
2021/09/19 11:37:29;;;;;;;5.43;5.20;;;21.80;63.50;;;;;;5049080;28;20025;-83
2021/09/19 11:39:58;;;;;;;5.57;5.05;;;21.80;63.10;;;;;;5048970;28;20049;-83
2021/09/19 11:42:28;;;;;;;4.93;4.72;;;21.80;62.90;;;;;;5047960;28;20380;-83
2021/09/19 11:44:57;;;;;;;5.30;5.10;;;21.90;63.00;;;;;;5049498;28;20033;-83
2021/09/19 11:47:24;;;;;;;6.00;5.70;;;21.90;62.80;;;;;;5050632;28;20491;-81
2021/09/19 11:49:53;;;;;;;5.65;5.40;;;22.00;62.60;;;;;;5049219;28;20509;-83
2021/09/19 11:52:20;;;;;;;5.45;5.25;;;22.00;62.40;;;;;;5050749;28;20033;-83
2021/09/19 11:54:47;;;;;;;5.90;5.60;;;22.10;62.30;;;;;;5050304;28;20037;-83
2021/09/19 11:57:14;;;;;;;5.50;5.20;;;22.10;62.00;;;;;;5050313;28;20033;-83
2021/09/19 11:59:44;;;;;;;5.05;4.85;;;22.10;62.00;;;;;;5050753;28;20040;-83
2021/09/19 12:02:11;;;;;;;5.13;4.93;;;22.20;61.90;;;;;;5050382;28;20025;-83
2021/09/19 12:04:40;;;;;;;5.60;5.30;;;22.30;61.70;;;;;;5033932;28;20032;-83
2021/09/19 12:07:09;;;;;;;5.72;5.28;;;22.40;61.50;;;;;;5048952;28;20025;-83
2021/09/19 12:09:35;;;;;;;5.55;5.32;;;22.40;61.40;;;;;;5035570;28;20040;-83
2021/09/19 12:12:02;;;;;;;5.82;5.53;;;22.40;61.40;;;;;;5036317;28;20032;-83
2021/09/19 12:14:29;;;;;;;6.13;5.82;;;22.50;61.20;;;;;;5053805;28;20029;-83
2021/09/19 12:16:56;;;;;;;5.60;5.38;;;22.60;61.00;;;;;;5052288;28;20036;-83
2021/09/19 12:19:22;;;;;;;6.32;6.03;;;22.60;60.50;;;;;;5053990;28;20032;-83
2021/09/19 12:21:59;;;;;;;5.82;5.53;;;22.60;60.50;;;;;;5051565;28;20048;-83
2021/09/19 12:24:27;;;;;;;5.50;5.30;;;22.50;60.60;;;;;;5052628;28;20092;-83
2021/09/19 12:27:11;;;;;;;6.00;5.70;;;22.50;60.60;;;;;;5054075;28;20025;-83
2021/09/19 12:29:39;;;;;;;5.07;4.88;;;22.60;60.40;;;;;;5050722;28;20036;-83
2021/09/19 12:32:06;;;;;;;5.95;5.68;;;22.50;60.20;;;;;;5053793;27;20040;-84
2021/09/19 12:34:32;;;;;;;5.72;5.47;;;22.50;60.40;;;;;;5053657;28;20041;-84
2021/09/19 12:36:59;;;;;;;5.82;5.53;;;22.40;60.30;;;;;;5053748;28;20056;-83
2021/09/19 12:39:28;;;;;;;5.07;4.88;;;22.50;60.30;;;;;;5051953;28;20418;-83
2021/09/19 12:41:56;;;;;;;6.60;6.30;;;22.60;60.00;;;;;;5052703;28;20041;-84
2021/09/19 12:44:25;;;;;;;6.25;5.95;;;22.70;60.00;;;;;;5053802;28;20379;-84
2021/09/19 12:46:53;;;;;;;5.97;5.68;;;22.70;59.80;;;;;;5052940;27;20033;-83